createdAt,value
2022-09-07T00:01:29.902Z,6.65
2022-09-07T00:04:32.415Z,7.18
2022-09-07T00:07:34.787Z,6.65
2022-09-07T00:10:37.410Z,6.90
2022-09-07T00:13:41.313Z,6.97
2022-09-07T00:16:43.700Z,6.72
2022-09-07T00:19:45.850Z,7.40
2022-09-07T00:22:48.260Z,7.45
2022-09-07T00:25:53.996Z,7.40
2022-09-07T00:28:59.359Z,7.65
2022-09-07T00:32:01.605Z,7.57
2022-09-07T00:35:04.195Z,7.32
2022-09-07T00:38:06.346Z,7.97
2022-09-07T00:41:09.143Z,8.77
2022-09-07T00:44:42.359Z,8.30
2022-09-07T00:48:03.264Z,9.25
2022-09-07T00:51:09.182Z,8.27
2022-09-07T00:54:17.582Z,9.05
2022-09-07T00:57:20.623Z,8.70
2022-09-07T01:00:23.081Z,9.30
2022-09-07T01:03:33.793Z,8.77
2022-09-07T01:06:39.538Z,9.02
2022-09-07T01:09:43.005Z,10.52
2022-09-07T01:12:45.401Z,9.48
2022-09-07T01:16:11.879Z,9.43
2022-09-07T01:19:51.746Z,8.85
2022-09-07T01:22:56.635Z,9.70
2022-09-07T01:26:22.977Z,9.15
2022-09-07T01:29:28.143Z,9.60
2022-09-07T01:32:48.173Z,10.43
2022-09-07T01:36:11.849Z,10.27
2022-09-07T01:39:14.780Z,9.90
2022-09-07T01:42:23.066Z,10.10
2022-09-07T01:45:32.194Z,10.80
2022-09-07T01:48:36.329Z,10.38
2022-09-07T01:51:43.862Z,13.60
2022-09-07T01:54:51.825Z,9.75
2022-09-07T01:58:12.539Z,10.43
2022-09-07T02:01:41.193Z,9.90
2022-09-07T02:04:59.498Z,10.35
2022-09-07T02:08:27.899Z,11.15
2022-09-07T02:11:40.351Z,13.88
2022-09-07T02:14:51.919Z,10.57
2022-09-07T02:18:02.479Z,12.02
2022-09-07T02:21:07.917Z,11.32
2022-09-07T02:24:22.333Z,10.82
2022-09-07T02:27:34.465Z,11.80
2022-09-07T02:30:37.105Z,10.90
2022-09-07T02:33:39.600Z,11.68
2022-09-07T02:36:46.863Z,11.82
2022-09-07T02:39:49.388Z,11.10
2022-09-07T02:42:52.010Z,11.45
2022-09-07T02:46:19.298Z,12.40
2022-09-07T02:49:36.953Z,10.60
2022-09-07T02:53:10.969Z,11.32
2022-09-07T02:56:41.490Z,11.15
2022-09-07T02:59:49.797Z,11.30
2022-09-07T03:03:13.492Z,10.73
2022-09-07T03:06:36.471Z,11.48
2022-09-07T03:09:45.552Z,11.40
2022-09-07T03:12:49.790Z,11.95
2022-09-07T03:15:55.720Z,11.43
2022-09-07T03:18:58.238Z,11.52
2022-09-07T03:22:00.713Z,11.80
2022-09-07T03:25:04.365Z,15.27
2022-09-07T03:28:07.094Z,12.65
2022-09-07T03:31:09.318Z,11.38
2022-09-07T03:34:11.851Z,12.52
2022-09-07T03:37:14.308Z,12.30
2022-09-07T03:40:17.145Z,11.57
2022-09-07T03:43:19.258Z,12.68
2022-09-07T03:46:21.794Z,15.38
2022-09-07T03:49:23.985Z,11.02
2022-09-07T03:52:26.522Z,12.27
2022-09-07T03:55:28.632Z,11.38
2022-09-07T03:58:32.751Z,11.80
2022-09-07T04:01:35.093Z,12.35
2022-09-07T04:04:37.593Z,12.70
2022-09-07T04:07:39.807Z,12.70
2022-09-07T04:10:42.296Z,12.00
2022-09-07T04:13:45.611Z,12.23
2022-09-07T04:16:48.585Z,13.95
2022-09-07T04:19:50.726Z,13.60
2022-09-07T04:22:54.426Z,13.15
2022-09-07T04:25:56.679Z,11.90
2022-09-07T04:29:01.124Z,14.45
2022-09-07T04:32:03.354Z,11.82
2022-09-07T04:35:06.379Z,10.75
2022-09-07T04:38:13.903Z,11.52
2022-09-07T04:41:18.411Z,11.73
2022-09-07T04:44:20.560Z,11.05
2022-09-07T04:47:23.046Z,11.02
2022-09-07T04:50:25.156Z,11.27
2022-09-07T04:53:27.864Z,10.90
2022-09-07T04:56:31.519Z,11.27
2022-09-07T04:59:33.935Z,13.77
2022-09-07T05:02:36.404Z,9.82
2022-09-07T05:05:39.284Z,9.80
2022-09-07T05:08:44.497Z,10.48
2022-09-07T05:11:46.969Z,9.77
2022-09-07T05:14:49.172Z,10.88
2022-09-07T05:17:51.548Z,10.07
2022-09-07T05:20:53.661Z,8.93
2022-09-07T05:23:58.596Z,10.10
2022-09-07T05:27:01.864Z,9.93
2022-09-07T05:30:08.488Z,10.85
2022-09-07T05:33:10.804Z,9.30
2022-09-07T05:36:13.218Z,8.45
2022-09-07T05:39:15.426Z,9.30
2022-09-07T05:42:17.853Z,12.25
2022-09-07T05:45:19.972Z,8.95
2022-09-07T05:48:22.706Z,9.25
2022-09-07T05:51:24.907Z,12.32
2022-09-07T05:54:27.350Z,9.93
2022-09-07T05:57:29.467Z,11.12
2022-09-07T06:00:31.922Z,9.77
2022-09-07T06:03:36.390Z,8.20
2022-09-07T06:06:38.909Z,11.38
2022-09-07T06:13:04.867Z,10.85
2022-09-07T06:16:08.145Z,10.15
2022-09-07T06:19:11.653Z,12.50
2022-09-07T06:22:14.064Z,12.43
2022-09-07T06:25:16.271Z,14.30
2022-09-07T06:28:18.762Z,9.23
2022-09-07T06:31:23.398Z,10.02
2022-09-07T06:34:26.911Z,12.65
2022-09-07T06:37:29.047Z,9.15
2022-09-07T06:40:33.203Z,8.93
2022-09-07T06:43:35.752Z,11.15
2022-09-07T06:50:00.412Z,10.40
2022-09-07T06:56:27.311Z,9.95
2022-09-07T06:59:29.677Z,11.48
2022-09-07T07:02:32.482Z,11.30
2022-09-07T07:05:34.853Z,11.02
2022-09-07T07:08:37.052Z,11.80
2022-09-07T07:11:39.442Z,11.12
2022-09-07T07:14:45.012Z,11.43
2022-09-07T07:17:53.196Z,9.20
2022-09-07T07:24:02.932Z,16.42
2022-09-07T07:27:07.297Z,10.95
2022-09-07T07:30:10.181Z,18.62
2022-09-07T07:33:12.343Z,10.45
2022-09-07T07:36:23.593Z,11.18
2022-09-07T07:42:48.197Z,11.07
2022-09-07T07:48:56.392Z,9.80
2022-09-07T07:58:47.348Z,13.35
2022-09-07T08:01:49.803Z,17.25
2022-09-07T08:04:52.849Z,10.23
2022-09-07T08:07:54.972Z,13.68
2022-09-07T08:10:57.343Z,13.70
2022-09-07T08:14:01.414Z,15.75
2022-09-07T08:17:03.768Z,11.15
2022-09-07T08:20:06.262Z,9.95
2022-09-07T08:23:08.778Z,11.00
2022-09-07T08:26:10.966Z,11.77
2022-09-07T08:29:13.387Z,8.55
2022-09-07T08:32:15.462Z,10.20
2022-09-07T08:35:20.235Z,11.07
2022-09-07T08:38:22.584Z,8.85
2022-09-07T08:41:50.127Z,11.95
2022-09-07T08:45:02.874Z,8.68
2022-09-07T08:48:05.812Z,6.03
2022-09-07T08:51:24.435Z,6.65
2022-09-07T08:54:27.525Z,7.18
2022-09-07T08:57:33.311Z,8.80
2022-09-07T09:00:36.119Z,10.18
2022-09-07T09:04:15.630Z,12.23
2022-09-07T09:07:09.751Z,7.95
2022-09-07T09:10:37.033Z,10.02
2022-09-07T09:13:58.291Z,15.63
2022-09-07T09:17:17.420Z,11.15
2022-09-07T09:20:31.072Z,7.87
2022-09-07T09:23:42.029Z,10.95
2022-09-07T09:29:53.434Z,19.02
2022-09-07T09:33:24.043Z,15.20
2022-09-07T09:36:34.386Z,10.27
2022-09-07T09:39:37.927Z,11.57
2022-09-07T09:42:40.683Z,10.85
2022-09-07T09:49:20.037Z,8.63
2022-09-07T09:52:29.029Z,9.45
2022-09-07T09:55:36.264Z,8.38
2022-09-07T10:05:50.826Z,6.62
2022-09-07T10:08:58.275Z,7.87
2022-09-07T10:12:06.695Z,6.65
2022-09-07T10:15:41.298Z,6.43
2022-09-07T10:18:58.677Z,6.03
2022-09-07T10:22:19.537Z,8.68
2022-09-07T10:25:39.694Z,6.53
2022-09-07T10:32:22.536Z,8.45
2022-09-07T10:35:35.635Z,9.07
2022-09-07T10:38:46.731Z,15.50
2022-09-07T10:42:07.304Z,6.93
2022-09-07T10:45:36.811Z,9.75
2022-09-07T10:49:24.690Z,12.88
2022-09-07T10:52:47.769Z,10.18
2022-09-07T10:56:07.477Z,10.85
2022-09-07T11:02:33.191Z,6.47
2022-09-07T11:06:08.030Z,10.60
2022-09-07T11:09:17.405Z,8.10
2022-09-07T11:12:28.195Z,7.43
2022-09-07T11:15:44.204Z,8.38
2022-09-07T11:22:47.427Z,8.30
2022-09-07T11:26:11.498Z,8.73
2022-09-07T11:29:29.568Z,9.48
2022-09-07T11:32:37.287Z,10.60
2022-09-07T11:35:47.247Z,10.43
2022-09-07T11:38:58.085Z,13.00
2022-09-07T11:45:41.974Z,15.65
2022-09-07T11:48:55.390Z,15.30
2022-09-07T11:52:05.684Z,15.25
2022-09-07T11:55:20.491Z,15.40
2022-09-07T11:58:56.468Z,15.63
2022-09-07T12:02:18.961Z,16.55
2022-09-07T12:05:31.683Z,15.65
2022-09-07T12:08:33.793Z,15.10
2022-09-07T12:12:04.374Z,15.75
2022-09-07T12:15:37.288Z,15.15
2022-09-07T12:19:01.127Z,14.82
2022-09-07T12:22:03.662Z,15.45
2022-09-07T12:25:10.184Z,14.82
2022-09-07T12:28:21.865Z,15.18
2022-09-07T12:35:31.787Z,16.00
2022-09-07T12:38:34.141Z,14.90
2022-09-07T12:41:48.247Z,15.60
2022-09-07T12:45:28.763Z,15.90
2022-09-07T12:52:31.493Z,15.20
2022-09-07T12:59:33.266Z,13.77
2022-09-07T13:02:53.376Z,15.32
2022-09-07T13:10:06.711Z,13.90
2022-09-07T13:13:15.550Z,16.08
2022-09-07T13:16:17.969Z,14.35
2022-09-07T13:19:46.481Z,14.13
2022-09-07T13:22:48.445Z,14.32
2022-09-07T13:25:53.868Z,13.40
2022-09-07T13:28:58.217Z,13.95
2022-09-07T13:32:19.967Z,13.60
2022-09-07T13:35:24.913Z,13.55
2022-09-07T13:38:29.586Z,13.90
2022-09-07T13:41:43.549Z,13.93
2022-09-07T13:44:57.676Z,13.85
2022-09-07T13:48:20.923Z,13.55
2022-09-07T13:51:23.206Z,13.40
2022-09-07T13:55:03.292Z,12.95
2022-09-07T13:58:05.986Z,12.07
2022-09-07T14:01:21.089Z,11.25
2022-09-07T14:04:42.190Z,11.18
2022-09-07T14:07:46.020Z,10.50
2022-09-07T14:10:48.969Z,10.30
2022-09-07T14:14:20.721Z,9.35
2022-09-07T14:17:23.046Z,8.98
2022-09-07T14:20:25.732Z,9.02
2022-09-07T14:23:32.215Z,9.13
2022-09-07T14:26:34.512Z,9.20
2022-09-07T14:29:37.005Z,10.15
2022-09-07T14:32:39.170Z,9.25
2022-09-07T14:35:41.906Z,9.85
2022-09-07T14:42:07.760Z,10.23
2022-09-07T14:45:22.066Z,10.52
2022-09-07T14:48:32.292Z,10.63
2022-09-07T14:51:37.229Z,10.95
2022-09-07T14:54:40.179Z,10.27
2022-09-07T14:57:42.410Z,10.15
2022-09-07T15:01:36.689Z,11.15
2022-09-07T15:04:18.944Z,10.23
2022-09-07T15:07:37.582Z,11.10
2022-09-07T15:10:41.273Z,12.43
2022-09-07T15:13:45.413Z,12.07
2022-09-07T15:20:32.512Z,12.25
2022-09-07T15:23:34.603Z,11.98
2022-09-07T15:30:03.477Z,14.10
2022-09-07T15:33:06.217Z,11.95
2022-09-07T15:36:12.939Z,13.18
2022-09-07T15:39:20.413Z,13.65
2022-09-07T15:45:45.034Z,13.00
2022-09-07T15:48:51.784Z,13.40
2022-09-07T15:52:09.419Z,13.90
2022-09-07T15:55:11.834Z,13.10
2022-09-07T15:58:14.385Z,13.60
2022-09-07T16:04:38.993Z,14.18
2022-09-07T16:11:25.494Z,14.25
2022-09-07T16:14:27.894Z,13.45
2022-09-07T16:17:35.579Z,16.08
2022-09-07T16:20:40.939Z,16.00
2022-09-07T16:23:47.861Z,15.18
2022-09-07T16:26:49.974Z,15.50
2022-09-07T16:29:52.565Z,14.87
2022-09-07T16:32:54.786Z,19.10
2022-09-07T16:36:02.063Z,15.00
2022-09-07T16:39:04.438Z,15.95
2022-09-07T16:42:07.310Z,15.13
2022-09-07T16:48:34.502Z,14.87
2022-09-07T16:51:37.228Z,15.07
2022-09-07T16:54:39.754Z,16.08
2022-09-07T17:01:08.487Z,14.93
2022-09-07T17:04:11.604Z,16.00
2022-09-07T17:07:14.185Z,15.98
2022-09-07T17:10:16.368Z,16.37
2022-09-07T17:13:18.702Z,20.08
2022-09-07T17:16:40.808Z,16.60
2022-09-07T17:19:43.322Z,16.02
2022-09-07T17:22:45.466Z,16.58
2022-09-07T17:25:47.802Z,17.37
2022-09-07T17:28:51.610Z,17.05
2022-09-07T17:35:16.241Z,17.52
2022-09-07T17:41:40.702Z,20.27
2022-09-07T17:44:43.045Z,16.75
2022-09-07T17:47:45.333Z,17.08
2022-09-07T17:50:47.715Z,15.38
2022-09-07T17:53:58.585Z,18.20
2022-09-07T17:57:01.390Z,16.40
2022-09-07T18:00:11.816Z,17.00
2022-09-07T18:03:14.711Z,22.37
2022-09-07T18:06:16.814Z,18.65
2022-09-07T18:09:19.910Z,16.50
2022-09-07T18:12:22.817Z,16.23
2022-09-07T18:15:25.407Z,17.00
2022-09-07T18:18:28.371Z,17.65
2022-09-07T18:21:33.484Z,16.92
2022-09-07T18:24:36.822Z,16.77
2022-09-07T18:27:40.435Z,16.52
2022-09-07T18:30:42.815Z,17.45
2022-09-07T18:33:47.452Z,17.27
2022-09-07T18:36:49.771Z,18.95
2022-09-07T18:39:52.202Z,18.27
2022-09-07T18:42:55.170Z,18.85
2022-09-07T18:46:05.052Z,19.35
2022-09-07T18:49:07.660Z,17.90
2022-09-07T18:55:33.024Z,18.33
2022-09-07T18:58:36.110Z,17.27
2022-09-07T19:01:38.384Z,17.85
2022-09-07T19:08:03.829Z,18.55
2022-09-07T19:11:08.382Z,18.67
2022-09-07T19:14:10.589Z,19.33
2022-09-07T19:17:12.972Z,18.95
2022-09-07T19:20:15.085Z,18.27
2022-09-07T19:23:17.417Z,19.37
2022-09-07T19:26:20.018Z,20.70
2022-09-07T19:29:23.326Z,19.15
2022-09-07T19:32:25.557Z,19.85
2022-09-07T19:35:28.651Z,18.75
2022-09-07T19:38:31.195Z,18.90
2022-09-07T19:41:35.047Z,18.95
2022-09-07T19:44:37.277Z,19.37
2022-09-07T19:47:39.636Z,17.55
2022-09-07T19:50:41.794Z,18.37
2022-09-07T19:53:46.091Z,18.25
2022-09-07T19:56:48.217Z,18.27
2022-09-07T19:59:52.977Z,19.10
2022-09-07T20:02:55.111Z,18.55
2022-09-07T20:05:57.659Z,19.55
2022-09-07T20:09:01.310Z,20.80
2022-09-07T20:12:03.959Z,21.80
2022-09-07T20:15:06.511Z,22.92
2022-09-07T20:18:08.826Z,23.27
2022-09-07T20:21:16.252Z,25.58
2022-09-07T20:24:22.251Z,27.08
2022-09-07T20:27:26.193Z,22.55
2022-09-07T20:30:33.497Z,22.42
2022-09-07T20:33:36.331Z,23.10
2022-09-07T20:36:38.839Z,22.52
2022-09-07T20:39:41.030Z,23.35
2022-09-07T20:42:43.487Z,27.67
2022-09-07T20:45:45.620Z,29.95
2022-09-07T20:48:47.963Z,24.95
2022-09-07T20:51:50.151Z,24.83
2022-09-07T20:54:52.692Z,24.05
2022-09-07T20:57:56.385Z,23.60
2022-09-07T21:00:59.387Z,21.02
2022-09-07T21:04:02.019Z,21.95
2022-09-07T21:07:04.660Z,22.17
2022-09-07T21:10:08.591Z,21.62
2022-09-07T21:13:11.521Z,21.73
2022-09-07T21:16:16.514Z,22.15
2022-09-07T21:19:19.073Z,21.62
2022-09-07T21:22:21.246Z,24.90
2022-09-07T21:25:24.103Z,23.05
2022-09-07T21:28:27.346Z,22.65
2022-09-07T21:31:31.326Z,21.83
2022-09-07T21:34:33.490Z,21.60
2022-09-07T21:37:37.032Z,21.77
2022-09-07T21:40:41.833Z,20.37
2022-09-07T21:43:44.295Z,20.20
2022-09-07T21:46:46.597Z,20.90
2022-09-07T21:49:49.060Z,21.65
2022-09-07T21:52:51.160Z,20.88
2022-09-07T21:55:58.472Z,21.50
2022-09-07T21:59:02.034Z,20.55
2022-09-07T22:02:04.392Z,20.12
2022-09-07T22:05:07.121Z,21.17
2022-09-07T22:08:09.167Z,20.30
2022-09-07T22:11:15.104Z,20.25
2022-09-07T22:14:17.207Z,18.92
2022-09-07T22:17:19.618Z,18.45
2022-09-07T22:20:21.783Z,19.45
2022-09-07T22:23:24.128Z,19.92
2022-09-07T22:26:28.535Z,19.25
2022-09-07T22:29:30.863Z,18.12
2022-09-07T22:32:33.539Z,18.90
2022-09-07T22:35:35.879Z,18.35
2022-09-07T22:38:38.417Z,18.98
2022-09-07T22:41:41.913Z,18.87
2022-09-07T22:44:43.982Z,19.48
2022-09-07T22:47:46.328Z,20.55
2022-09-07T22:50:57.296Z,19.90
2022-09-07T22:54:00.228Z,18.92
2022-09-07T22:57:02.318Z,18.95
2022-09-07T23:00:06.142Z,20.37
2022-09-07T23:03:08.304Z,19.52
2022-09-07T23:06:31.217Z,19.30
2022-09-07T23:09:33.326Z,19.52
2022-09-07T23:12:35.686Z,19.87
2022-09-07T23:15:37.754Z,19.45
2022-09-07T23:18:40.840Z,19.75
2022-09-07T23:21:43.280Z,19.23
2022-09-07T23:24:45.642Z,18.20
2022-09-07T23:27:47.722Z,19.00
2022-09-07T23:30:51.061Z,19.50
2022-09-07T23:33:53.348Z,18.33
2022-09-07T23:36:55.670Z,19.25
2022-09-07T23:39:57.968Z,19.70
2022-09-07T23:43:01.585Z,19.50
2022-09-07T23:46:03.675Z,19.62
2022-09-07T23:49:06.031Z,20.27
2022-09-07T23:52:08.097Z,20.02
2022-09-07T23:55:11.046Z,19.80
2022-09-07T23:58:13.195Z,18.45
